Time;durP1;ratioP1;P1;durP2;ratioP2;P2;SDS_P1;SDS_P2;PMS_P1;PMS_P2;Temp;Humidity;BMP_temperature;BMP_pressure;BME280_temperature;BME280_humidity;BME280_pressure;Samples;Min_cycle;Max_cycle;Signal;HPM_P1;HPM_P2
2022/11/12 00:00:33;;;;;;;18.30;9.75;;;5.90;99.90;;;;;;5023386;28;20501;-75
2022/11/12 00:02:59;;;;;;;18.33;10.83;;;5.90;99.90;;;;;;5062176;28;20047;-75
2022/11/12 00:05:25;;;;;;;21.80;10.70;;;5.80;99.90;;;;;;5064581;28;20040;-75
2022/11/12 00:07:51;;;;;;;19.73;9.83;;;5.80;99.90;;;;;;5038001;28;22138;-75
2022/11/12 00:10:17;;;;;;;21.80;10.83;;;5.80;99.90;;;;;;5039226;28;20104;-74
2022/11/12 00:12:43;;;;;;;17.67;10.67;;;5.70;99.90;;;;;;5026195;28;20119;-73
2022/11/12 00:15:09;;;;;;;17.40;10.20;;;5.70;99.90;;;;;;5038136;28;20316;-74
2022/11/12 00:17:35;;;;;;;19.00;11.25;;;5.70;99.90;;;;;;5063411;28;20485;-75
2022/11/12 00:20:01;;;;;;;20.43;11.70;;;5.60;99.90;;;;;;5043554;28;20052;-74
2022/11/12 00:22:27;;;;;;;18.80;10.80;;;5.60;99.90;;;;;;5036069;28;20047;-75
2022/11/12 00:24:53;;;;;;;20.10;12.52;;;5.60;99.90;;;;;;5062814;28;20283;-73
2022/11/12 00:27:19;;;;;;;20.23;11.03;;;5.50;99.90;;;;;;5042486;28;20044;-75
2022/11/12 00:29:44;;;;;;;17.87;10.30;;;5.50;99.90;;;;;;5048436;28;20097;-74
2022/11/12 00:32:10;;;;;;;17.23;11.07;;;5.50;99.90;;;;;;5028939;28;20098;-73
2022/11/12 00:34:36;;;;;;;22.25;11.82;;;5.50;99.90;;;;;;5045068;28;20052;-75
2022/11/12 00:37:02;;;;;;;18.97;11.10;;;5.50;99.90;;;;;;5044110;28;20059;-74
2022/11/12 00:39:28;;;;;;;18.80;11.02;;;5.60;99.90;;;;;;5046630;28;20046;-76
2022/11/12 00:41:55;;;;;;;23.40;11.90;;;5.60;99.90;;;;;;5027737;28;20048;-74
2022/11/12 00:44:21;;;;;;;23.10;12.00;;;5.60;99.90;;;;;;5062393;28;20044;-75
2022/11/12 00:46:47;;;;;;;23.03;11.93;;;5.60;99.90;;;;;;5044232;28;20059;-76
2022/11/12 00:49:13;;;;;;;20.70;11.80;;;5.60;99.90;;;;;;5045776;28;20040;-76
2022/11/12 00:51:39;;;;;;;16.17;10.68;;;5.60;99.90;;;;;;5024765;28;20048;-75
2022/11/12 00:54:05;;;;;;;21.87;11.33;;;5.60;99.90;;;;;;5038029;28;20036;-75
2022/11/12 00:56:32;;;;;;;19.73;11.95;;;5.50;99.90;;;;;;5061377;28;20043;-75
2022/11/12 00:58:58;;;;;;;21.67;11.48;;;5.50;99.90;;;;;;5078200;28;20048;-74
2022/11/12 01:01:24;;;;;;;18.85;10.73;;;5.50;99.90;;;;;;5054796;28;20072;-74
2022/11/12 01:03:50;;;;;;;19.95;10.90;;;5.40;99.90;;;;;;5044416;28;20468;-74
2022/11/12 01:06:19;;;;;;;16.90;11.17;;;5.30;99.90;;;;;;5043681;28;20047;-74
2022/11/12 01:08:47;;;;;;;18.58;11.25;;;5.20;99.90;;;;;;5045657;28;20049;-75
2022/11/12 01:11:28;;;;;;;21.52;11.27;;;5.20;99.90;;;;;;5058892;28;20133;-75
2022/11/12 01:13:57;;;;;;;19.52;11.27;;;5.20;99.90;;;;;;5045454;28;20461;-75
2022/11/12 01:16:25;;;;;;;18.70;11.55;;;5.20;99.90;;;;;;5041864;28;20043;-74
2022/11/12 01:18:53;;;;;;;22.75;12.05;;;5.10;99.90;;;;;;5050092;28;20059;-74
2022/11/12 01:21:20;;;;;;;23.40;12.07;;;5.20;99.90;;;;;;5043506;28;20082;-75
2022/11/12 01:23:46;;;;;;;20.77;12.38;;;5.20;99.90;;;;;;5044105;28;20153;-74
2022/11/12 01:26:15;;;;;;;19.43;12.00;;;5.30;99.90;;;;;;5014973;28;20080;-74
2022/11/12 01:28:42;;;;;;;20.60;11.95;;;5.30;99.90;;;;;;5032760;28;20049;-76
2022/11/12 01:31:12;;;;;;;23.75;12.60;;;5.30;99.90;;;;;;5060771;28;20076;-75
2022/11/12 01:33:39;;;;;;;19.17;12.25;;;5.30;99.90;;;;;;5055704;28;20053;-75
2022/11/12 01:36:05;;;;;;;23.88;12.05;;;5.20;99.90;;;;;;5060276;28;20131;-76
2022/11/12 01:38:35;;;;;;;20.35;11.13;;;5.20;99.90;;;;;;5025780;28;20075;-75
2022/11/12 01:41:01;;;;;;;22.08;12.25;;;5.20;99.90;;;;;;5041980;28;20131;-74
2022/11/12 01:43:27;;;;;;;19.83;11.37;;;5.20;99.90;;;;;;5042312;28;20135;-75
2022/11/12 01:45:53;;;;;;;20.20;11.43;;;5.20;99.90;;;;;;5044521;28;20044;-75
2022/11/12 01:48:33;;;;;;;18.17;10.50;;;5.10;99.90;;;;;;5042816;28;20040;-75
2022/11/12 01:51:01;;;;;;;20.08;11.32;;;5.10;99.90;;;;;;5064839;28;20040;-74
2022/11/12 01:53:30;;;;;;;19.70;10.68;;;5.00;99.90;;;;;;5062411;28;20044;-75
2022/11/12 01:55:57;;;;;;;16.73;10.60;;;4.90;99.90;;;;;;5056986;28;20080;-75
2022/11/12 01:58:28;;;;;;;16.20;10.88;;;4.80;99.90;;;;;;5019994;28;20028;-75
2022/11/12 02:00:54;;;;;;;16.48;10.68;;;4.80;99.90;;;;;;5046525;28;20048;-74
2022/11/12 02:03:23;;;;;;;21.92;11.07;;;4.80;99.90;;;;;;5066781;28;20055;-74
2022/11/12 02:05:53;;;;;;;17.40;11.13;;;4.70;99.90;;;;;;5060292;28;20044;-76
2022/11/12 02:08:21;;;;;;;23.75;11.35;;;4.60;99.90;;;;;;5064249;28;20508;-75
2022/11/12 02:10:46;;;;;;;22.73;11.77;;;4.60;99.90;;;;;;5048962;28;20068;-75
2022/11/12 02:15:57;;;;;;;19.17;11.27;;;4.60;99.90;;;;;;5046740;28;20500;-75
2022/11/12 02:18:23;;;;;;;16.42;11.25;;;4.50;99.90;;;;;;5047477;28;20071;-75
2022/11/12 02:20:54;;;;;;;21.47;11.97;;;4.50;99.90;;;;;;5047148;28;20375;-75
2022/11/12 02:23:20;;;;;;;20.08;11.88;;;4.50;99.90;;;;;;5065321;28;20063;-75
2022/11/12 02:25:46;;;;;;;20.77;12.37;;;4.50;99.90;;;;;;5065275;28;20062;-76
2022/11/12 02:28:12;;;;;;;23.63;12.47;;;4.50;99.90;;;;;;5049536;28;20048;-75
2022/11/12 02:30:40;;;;;;;24.87;13.27;;;4.50;99.90;;;;;;5030014;28;20701;-75
2022/11/12 02:33:06;;;;;;;22.15;13.38;;;4.50;99.90;;;;;;5054531;28;20991;-75
2022/11/12 02:35:32;;;;;;;22.50;12.90;;;4.50;99.90;;;;;;5039557;28;20057;-75
2022/11/12 02:37:58;;;;;;;24.83;13.80;;;4.50;99.90;;;;;;5045605;28;20094;-75
2022/11/12 02:40:24;;;;;;;22.77;13.73;;;4.50;99.90;;;;;;5044816;28;20055;-76
2022/11/12 02:42:50;;;;;;;24.83;14.43;;;4.50;99.90;;;;;;5046144;28;20048;-75
2022/11/12 02:45:16;;;;;;;24.42;14.38;;;4.50;99.90;;;;;;5057505;28;20045;-76
2022/11/12 02:47:42;;;;;;;24.08;13.60;;;4.50;99.90;;;;;;5062451;28;20476;-75
2022/11/12 02:50:08;;;;;;;26.23;15.30;;;4.50;99.90;;;;;;5031120;28;20123;-76
2022/11/12 02:52:34;;;;;;;27.40;14.50;;;4.50;99.90;;;;;;5039211;28;20033;-75
2022/11/12 02:55:00;;;;;;;28.55;15.35;;;4.60;99.90;;;;;;5056538;28;20598;-75
2022/11/12 02:57:28;;;;;;;29.80;16.77;;;4.70;99.90;;;;;;5045266;28;20060;-75
2022/11/12 02:59:54;;;;;;;24.60;15.60;;;4.90;99.90;;;;;;5056993;28;20053;-75
2022/11/12 03:02:19;;;;;;;29.07;15.57;;;5.00;99.90;;;;;;5043394;28;20052;-75
2022/11/12 03:04:45;;;;;;;29.73;15.70;;;5.10;99.90;;;;;;5029743;28;20041;-75
2022/11/12 03:07:11;;;;;;;29.07;15.73;;;5.20;99.90;;;;;;5060947;28;20041;-75
2022/11/12 03:09:36;;;;;;;24.67;16.10;;;5.30;99.90;;;;;;5061205;28;20515;-76
2022/11/12 03:12:02;;;;;;;26.13;16.40;;;5.40;99.90;;;;;;5065245;28;20067;-75
2022/11/12 03:14:28;;;;;;;26.33;15.73;;;5.50;99.90;;;;;;5044762;28;20531;-75
2022/11/12 03:16:54;;;;;;;25.57;15.43;;;5.50;99.90;;;;;;5042672;28;20062;-75
2022/11/12 03:19:19;;;;;;;26.10;17.00;;;5.60;99.90;;;;;;5058788;28;20045;-75
2022/11/12 03:21:45;;;;;;;26.83;16.43;;;5.70;99.90;;;;;;5044228;28;20044;-75
2022/11/12 03:24:11;;;;;;;26.37;16.60;;;5.70;99.90;;;;;;5041956;28;20116;-75
2022/11/12 03:26:36;;;;;;;29.90;16.47;;;5.80;99.90;;;;;;5046260;28;20429;-75
2022/11/12 03:29:03;;;;;;;34.17;17.77;;;5.90;99.90;;;;;;5059752;28;20037;-74
2022/11/12 03:31:28;;;;;;;29.00;16.83;;;5.90;99.90;;;;;;5045149;28;20571;-75
2022/11/12 03:33:54;;;;;;;27.40;16.27;;;6.00;99.90;;;;;;5042032;28;20063;-74
2022/11/12 03:36:20;;;;;;;25.93;16.77;;;6.10;99.90;;;;;;5061931;28;20147;-75
2022/11/12 03:38:46;;;;;;;28.80;17.27;;;6.10;99.90;;;;;;5026367;28;20104;-74
2022/11/12 03:41:11;;;;;;;25.90;16.27;;;6.20;99.90;;;;;;5046036;28;20160;-74
2022/11/12 03:43:37;;;;;;;25.03;16.40;;;6.20;99.90;;;;;;5043662;28;20047;-75
2022/11/12 03:46:03;;;;;;;26.33;16.17;;;6.30;99.90;;;;;;5022336;28;20094;-75
2022/11/12 03:48:29;;;;;;;32.73;17.30;;;6.30;99.90;;;;;;5047686;28;20049;-75
2022/11/12 03:50:58;;;;;;;32.33;17.50;;;6.30;99.90;;;;;;5031002;28;20143;-74
2022/11/12 03:53:25;;;;;;;36.65;18.00;;;6.40;99.90;;;;;;5040586;28;20041;-74
2022/11/12 03:55:50;;;;;;;45.08;19.00;;;6.40;99.90;;;;;;5061276;28;20048;-75
2022/11/12 03:58:16;;;;;;;43.77;18.60;;;6.40;99.90;;;;;;5044348;28;20043;-74
2022/11/12 04:00:42;;;;;;;43.73;17.70;;;6.50;99.90;;;;;;5048262;28;20171;-74
2022/11/12 04:03:08;;;;;;;52.10;19.67;;;6.50;99.90;;;;;;5035165;28;20507;-75
2022/11/12 04:08:35;;;;;;;58.80;20.30;;;6.60;99.90;;;;;;5034231;28;20531;-74
2022/11/12 04:11:07;;;;;;;56.30;19.23;;;6.60;99.90;;;;;;5042313;28;20040;-75
2022/11/12 04:13:34;;;;;;;50.20;18.80;;;6.60;99.90;;;;;;5060824;28;20540;-75
2022/11/12 04:21:56;;;;;;;;;;;6.70;99.90;;;;;;5049226;28;20051;-75
2022/11/12 04:27:14;;;;;;;51.20;19.27;;;6.80;99.90;;;;;;5053841;28;20076;-76
2022/11/12 04:32:25;;;;;;;58.35;20.77;;;6.80;99.90;;;;;;5047703;28;20044;-75
2022/11/12 04:34:52;;;;;;;52.28;19.17;;;6.90;99.90;;;;;;5049025;28;20127;-74
2022/11/12 04:37:18;;;;;;;51.55;21.70;;;6.90;99.90;;;;;;5044681;28;20033;-75
2022/11/12 04:39:44;;;;;;;92.70;25.58;;;6.90;99.90;;;;;;5045474;28;20143;-74
2022/11/12 04:45:03;;;;;;;67.20;23.25;;;7.00;99.90;;;;;;5050361;28;20044;-74
2022/11/12 04:47:33;;;;;;;90.03;25.75;;;7.10;99.90;;;;;;5048269;28;20048;-75
2022/11/12 04:50:00;;;;;;;65.25;25.00;;;7.20;99.90;;;;;;5060743;28;20037;-75
2022/11/12 04:52:27;;;;;;;93.85;26.30;;;7.20;99.90;;;;;;5044110;28;20032;-74
2022/11/12 04:54:53;;;;;;;87.22;25.00;;;7.30;99.90;;;;;;5062694;28;20037;-74
2022/11/12 04:57:19;;;;;;;74.57;25.48;;;7.30;99.90;;;;;;5063485;28;20036;-74
2022/11/12 04:59:46;;;;;;;81.35;26.38;;;7.40;99.90;;;;;;5081798;28;20099;-75
2022/11/12 05:02:12;;;;;;;134.43;31.85;;;7.40;99.90;;;;;;5026399;28;20047;-74
2022/11/12 05:04:37;;;;;;;133.02;31.75;;;7.50;99.90;;;;;;5039740;28;20052;-74
2022/11/12 05:07:03;;;;;;;122.30;28.57;;;7.50;99.90;;;;;;5040711;28;20326;-75
2022/11/12 05:09:29;;;;;;;91.30;28.20;;;7.60;99.90;;;;;;5044196;28;20449;-76
2022/11/12 05:11:56;;;;;;;85.00;28.43;;;7.60;99.90;;;;;;5043227;28;20114;-75
2022/11/12 05:14:22;;;;;;;140.55;32.55;;;7.60;99.90;;;;;;5041155;28;20119;-75
2022/11/12 05:16:49;;;;;;;88.15;28.13;;;7.70;99.90;;;;;;5043120;28;20090;-75
2022/11/12 05:19:14;;;;;;;87.05;28.15;;;7.70;99.90;;;;;;5058211;28;20506;-76
2022/11/12 05:24:24;;;;;;;81.68;27.42;;;7.70;99.90;;;;;;5062694;28;20048;-75
2022/11/12 05:26:51;;;;;;;206.30;37.40;;;7.70;99.90;;;;;;5068972;28;20051;-75
2022/11/12 05:29:17;;;;;;;92.63;28.80;;;7.80;99.90;;;;;;5049191;28;20041;-76
2022/11/12 05:31:43;;;;;;;200.55;36.65;;;7.80;99.90;;;;;;5084541;28;20079;-75
2022/11/12 05:34:09;;;;;;;182.75;35.70;;;7.80;99.90;;;;;;5045297;28;20060;-75
2022/11/12 05:36:35;;;;;;;122.47;29.23;;;7.80;99.90;;;;;;5050551;28;20586;-75
2022/11/12 05:39:01;;;;;;;80.03;28.33;;;7.80;99.90;;;;;;5048023;28;20496;-75
2022/11/12 05:41:27;;;;;;;169.30;33.93;;;7.80;99.90;;;;;;5049585;28;20040;-75
2022/11/12 05:43:52;;;;;;;132.70;30.48;;;7.80;99.90;;;;;;5061650;28;20504;-76
2022/11/12 05:46:18;;;;;;;120.37;29.87;;;7.80;99.90;;;;;;5042723;28;20075;-75
2022/11/12 05:48:44;;;;;;;159.13;31.83;;;7.80;99.90;;;;;;5050366;28;20474;-73
2022/11/12 05:51:12;;;;;;;210.37;36.80;;;7.80;99.90;;;;;;5050792;28;20453;-74
2022/11/12 05:53:38;;;;;;;259.50;40.22;;;7.80;99.90;;;;;;5053651;28;20119;-74
2022/11/12 05:56:05;;;;;;;108.70;29.88;;;7.80;99.90;;;;;;5045169;28;20041;-74
2022/11/12 05:58:31;;;;;;;181.40;34.45;;;7.80;99.90;;;;;;5037756;28;20123;-74
2022/11/12 06:00:57;;;;;;;228.13;40.90;;;7.80;99.90;;;;;;5046981;28;20131;-75
2022/11/12 06:03:23;;;;;;;106.80;33.20;;;7.80;99.90;;;;;;5030285;28;20603;-74
2022/11/12 06:05:50;;;;;;;83.72;32.60;;;7.70;99.90;;;;;;5066639;28;20119;-74
2022/11/12 06:08:15;;;;;;;111.22;35.58;;;7.70;99.90;;;;;;5045275;28;20496;-74
2022/11/12 06:10:41;;;;;;;101.90;32.80;;;7.80;99.90;;;;;;5061528;28;20047;-74
2022/11/12 06:13:07;;;;;;;154.57;38.67;;;7.80;99.90;;;;;;5060841;28;20512;-74
2022/11/12 06:15:33;;;;;;;124.17;34.73;;;7.70;99.90;;;;;;5041051;28;20081;-74
2022/11/12 06:17:59;;;;;;;142.23;36.23;;;7.80;99.90;;;;;;5063852;28;20102;-73
2022/11/12 06:20:24;;;;;;;110.73;32.67;;;7.80;99.90;;;;;;5047721;28;20504;-75
2022/11/12 06:22:50;;;;;;;91.70;31.17;;;7.80;99.90;;;;;;5047514;28;20054;-75
2022/11/12 06:25:16;;;;;;;123.53;34.57;;;7.70;99.90;;;;;;5046428;28;20036;-75
2022/11/12 06:27:42;;;;;;;109.25;33.42;;;7.70;99.90;;;;;;5029774;28;20044;-74
2022/11/12 06:30:08;;;;;;;116.33;33.57;;;7.70;99.90;;;;;;5045910;28;20033;-74
2022/11/12 06:32:35;;;;;;;104.53;32.88;;;7.70;99.90;;;;;;5048220;28;20047;-74
2022/11/12 06:35:01;;;;;;;109.43;32.65;;;7.70;99.90;;;;;;5047294;28;20137;-74
2022/11/12 06:37:26;;;;;;;122.37;33.40;;;7.70;99.90;;;;;;5060573;28;20052;-74
2022/11/12 06:39:52;;;;;;;151.70;35.93;;;7.70;99.90;;;;;;5064427;28;20450;-74
2022/11/12 06:42:18;;;;;;;121.07;33.63;;;7.70;99.90;;;;;;5051838;28;20067;-74
2022/11/12 06:44:44;;;;;;;103.30;32.00;;;7.60;99.90;;;;;;5031732;28;20068;-74
2022/11/12 06:47:10;;;;;;;230.30;39.53;;;7.70;99.90;;;;;;5067514;28;20049;-74
2022/11/12 06:49:36;;;;;;;173.80;35.30;;;7.60;99.90;;;;;;5062431;28;20045;-74
2022/11/12 06:52:02;;;;;;;87.97;30.05;;;7.60;99.90;;;;;;5049956;28;20072;-75
2022/11/12 06:54:28;;;;;;;132.88;31.65;;;7.60;99.90;;;;;;5061205;28;20094;-74
2022/11/12 06:56:53;;;;;;;69.30;28.03;;;7.60;99.90;;;;;;5051785;28;20040;-75
2022/11/12 06:59:19;;;;;;;72.30;26.43;;;7.60;99.90;;;;;;5063178;28;20055;-74
2022/11/12 07:01:45;;;;;;;90.33;29.67;;;7.60;99.90;;;;;;5062954;28;20599;-75
2022/11/12 07:04:10;;;;;;;245.93;40.57;;;7.60;99.90;;;;;;5060428;28;20036;-74
2022/11/12 07:06:36;;;;;;;85.43;30.27;;;7.60;99.90;;;;;;5028500;28;20123;-74
2022/11/12 07:09:03;;;;;;;101.47;31.23;;;7.50;99.90;;;;;;5032425;28;20071;-75
2022/11/12 07:11:29;;;;;;;124.38;32.38;;;7.50;99.90;;;;;;5058859;28;20039;-74
2022/11/12 07:13:55;;;;;;;116.80;31.93;;;7.50;99.90;;;;;;5056563;28;20600;-74
2022/11/12 07:16:21;;;;;;;91.53;30.07;;;7.50;99.90;;;;;;5045100;28;20523;-74
2022/11/12 07:18:48;;;;;;;60.60;27.65;;;7.50;99.90;;;;;;5051342;28;20040;-75
2022/11/12 07:21:19;;;;;;;106.85;29.95;;;7.50;99.90;;;;;;5029226;28;20044;-75
2022/11/12 07:23:46;;;;;;;115.32;31.73;;;7.40;99.90;;;;;;5030953;28;20045;-75
2022/11/12 07:26:23;;;;;;;165.32;35.40;;;7.50;99.90;;;;;;5029927;28;20048;-74
2022/11/12 07:28:50;;;;;;;75.65;27.98;;;7.50;99.90;;;;;;5048833;28;20119;-75
2022/11/12 07:31:18;;;;;;;76.07;26.90;;;7.50;99.90;;;;;;5048715;28;20051;-75
2022/11/12 07:33:44;;;;;;;145.93;33.58;;;7.50;99.90;;;;;;5066167;28;20052;-75
2022/11/12 07:36:18;;;;;;;56.53;24.67;;;7.40;99.90;;;;;;5051229;28;20047;-76
2022/11/12 07:38:45;;;;;;;135.13;33.55;;;7.40;99.90;;;;;;5066367;28;20059;-75
2022/11/12 07:41:16;;;;;;;83.70;27.73;;;7.40;99.90;;;;;;5048135;28;20044;-75
2022/11/12 07:43:44;;;;;;;70.30;26.33;;;7.40;99.90;;;;;;5044976;28;20041;-74
2022/11/12 07:46:12;;;;;;;75.35;26.88;;;7.40;99.90;;;;;;5047243;28;20052;-74
2022/11/12 07:48:39;;;;;;;70.28;24.55;;;7.40;99.90;;;;;;5044758;28;20397;-74
2022/11/12 07:51:06;;;;;;;78.60;27.23;;;7.40;99.90;;;;;;5044995;28;20059;-75
2022/11/12 07:53:33;;;;;;;81.55;27.92;;;7.40;99.90;;;;;;5063187;28;20037;-74
2022/11/12 07:56:01;;;;;;;117.97;31.13;;;7.40;99.90;;;;;;5043893;28;20032;-75
2022/11/12 07:58:29;;;;;;;78.57;27.95;;;7.40;99.90;;;;;;5024148;28;20090;-74
2022/11/12 08:00:55;;;;;;;69.35;26.88;;;7.50;99.90;;;;;;5077097;28;20419;-74
2022/11/12 08:03:21;;;;;;;68.00;25.97;;;7.50;99.90;;;;;;5059923;28;20048;-75
2022/11/12 08:05:47;;;;;;;56.45;23.80;;;7.50;99.90;;;;;;5041378;28;20504;-74
2022/11/12 08:08:13;;;;;;;67.30;25.17;;;7.50;99.90;;;;;;5023691;28;20106;-75
2022/11/12 08:10:38;;;;;;;69.43;25.80;;;7.50;99.90;;;;;;5058990;28;20125;-75
2022/11/12 08:13:05;;;;;;;72.83;25.57;;;7.50;99.90;;;;;;5058173;28;20279;-75
2022/11/12 08:15:31;;;;;;;85.35;27.10;;;7.50;99.90;;;;;;5038249;28;20040;-75
2022/11/12 08:17:58;;;;;;;62.22;24.95;;;7.50;99.90;;;;;;5039808;28;20044;-74
2022/11/12 08:20:24;;;;;;;102.55;28.02;;;7.50;99.90;;;;;;5058767;28;20046;-75
2022/11/12 08:22:50;;;;;;;88.53;25.97;;;7.50;99.90;;;;;;5052725;28;20049;-74
2022/11/12 08:25:17;;;;;;;63.42;22.95;;;7.50;99.90;;;;;;5038373;28;20032;-74
2022/11/12 08:27:43;;;;;;;71.20;24.27;;;7.50;99.90;;;;;;5055105;28;20051;-74
2022/11/12 08:30:09;;;;;;;73.50;24.90;;;7.50;99.90;;;;;;5030703;28;20524;-75
2022/11/12 08:32:35;;;;;;;73.43;24.02;;;7.50;99.90;;;;;;5016877;28;20048;-74
2022/11/12 08:35:01;;;;;;;65.37;23.17;;;7.50;99.90;;;;;;5040397;28;20083;-74
2022/11/12 08:37:26;;;;;;;73.37;24.50;;;7.50;99.90;;;;;;5029294;28;20485;-75
2022/11/12 08:39:52;;;;;;;62.33;24.60;;;7.50;99.90;;;;;;5023537;28;20068;-76
2022/11/12 08:42:18;;;;;;;84.43;26.27;;;7.50;99.90;;;;;;5030012;28;20145;-75
2022/11/12 08:44:44;;;;;;;40.87;20.93;;;7.50;99.90;;;;;;5029509;28;20522;-75
2022/11/12 08:47:10;;;;;;;107.97;27.60;;;7.50;99.90;;;;;;5042892;28;20051;-75
2022/11/12 08:49:36;;;;;;;75.68;23.30;;;7.40;99.90;;;;;;5026414;28;20093;-74
2022/11/12 08:52:02;;;;;;;80.07;24.40;;;7.40;99.90;;;;;;5078352;28;20380;-74
2022/11/12 08:54:29;;;;;;;126.93;28.40;;;7.40;99.90;;;;;;5047368;28;20503;-76
2022/11/12 08:56:54;;;;;;;36.08;18.55;;;7.40;99.90;;;;;;5028125;28;20411;-74
2022/11/12 08:59:26;;;;;;;47.25;19.77;;;7.40;99.90;;;;;;5048088;28;20099;-74
2022/11/12 09:01:52;;;;;;;71.00;21.57;;;7.40;99.90;;;;;;5061610;28;20427;-75
2022/11/12 09:04:18;;;;;;;56.10;20.80;;;7.40;99.90;;;;;;5026564;28;20105;-75
2022/11/12 09:06:43;;;;;;;50.47;20.03;;;7.40;99.90;;;;;;5064510;28;20032;-74
2022/11/12 09:09:09;;;;;;;54.27;19.93;;;7.40;99.90;;;;;;5031638;28;20037;-76
2022/11/12 09:11:35;;;;;;;52.33;19.90;;;7.40;99.90;;;;;;5044192;28;20068;-74
2022/11/12 09:14:01;;;;;;;46.40;18.87;;;7.40;99.90;;;;;;5043777;28;20183;-73
2022/11/12 09:16:26;;;;;;;48.63;19.13;;;7.50;99.90;;;;;;5041238;28;20037;-74
2022/11/12 09:18:52;;;;;;;43.13;18.70;;;7.50;99.90;;;;;;5023940;28;20033;-74
2022/11/12 09:21:23;;;;;;;72.63;21.13;;;7.50;99.90;;;;;;5057960;28;20040;-75
2022/11/12 09:23:49;;;;;;;53.95;20.23;;;7.50;99.90;;;;;;5025044;28;20052;-75
2022/11/12 09:26:15;;;;;;;61.65;18.98;;;7.40;99.90;;;;;;5061326;28;20443;-74
2022/11/12 09:28:41;;;;;;;96.33;24.50;;;7.40;99.90;;;;;;5029282;28;20052;-74
2022/11/12 09:31:07;;;;;;;77.63;22.50;;;7.40;99.90;;;;;;5041920;28;20221;-74
2022/11/12 09:33:33;;;;;;;74.47;23.60;;;7.40;99.90;;;;;;5025712;28;20033;-74
2022/11/12 09:36:01;;;;;;;51.97;21.40;;;7.40;99.90;;;;;;5039880;28;20051;-75
2022/11/12 09:38:27;;;;;;;61.63;23.73;;;7.40;99.90;;;;;;5040262;28;20727;-74
2022/11/12 09:41:31;;;;;;;53.97;23.73;;;7.50;99.90;;;;;;5052675;28;20131;-74
2022/11/12 09:44:02;;;;;;;75.85;26.70;;;7.50;99.90;;;;;;5059682;28;20052;-75
2022/11/12 09:46:37;;;;;;;109.38;29.77;;;7.60;99.90;;;;;;5051398;28;20057;-74
2022/11/12 09:49:26;;;;;;;50.15;23.75;;;7.60;99.90;;;;;;5042505;28;20047;-73
2022/11/12 09:52:02;;;;;;;64.60;25.52;;;7.60;99.90;;;;;;5056393;28;20051;-75
2022/11/12 09:54:31;;;;;;;53.22;23.90;;;7.70;99.90;;;;;;5061236;28;20127;-74
2022/11/12 09:56:58;;;;;;;92.90;27.45;;;7.70;99.90;;;;;;5051996;28;20028;-76
2022/11/12 09:59:30;;;;;;;68.82;25.27;;;7.70;99.90;;;;;;5043641;28;20087;-75
2022/11/12 10:02:11;;;;;;;91.65;28.27;;;7.80;99.90;;;;;;5058901;28;20503;-75
2022/11/12 10:05:11;;;;;;;83.15;28.10;;;7.80;99.90;;;;;;5073829;28;20768;-75
2022/11/12 10:07:53;;;;;;;73.07;25.98;;;7.90;99.90;;;;;;5044214;28;20088;-76
2022/11/12 10:10:41;;;;;;;72.60;27.70;;;7.90;99.90;;;;;;5055624;28;20040;-75
2022/11/12 10:13:25;;;;;;;86.15;27.75;;;7.90;99.90;;;;;;5037083;28;20417;-74
2022/11/12 10:16:43;;;;;;;66.13;28.08;;;8.00;99.90;;;;;;5038493;28;20496;-74
2022/11/12 10:19:21;;;;;;;65.45;26.52;;;8.00;99.90;;;;;;5046263;28;20067;-74
2022/11/12 10:22:13;;;;;;;69.05;29.30;;;8.00;99.90;;;;;;5052970;28;20037;-75
2022/11/12 10:24:41;;;;;;;73.90;29.58;;;8.10;99.90;;;;;;5061248;28;20043;-73
2022/11/12 10:27:25;;;;;;;72.15;29.35;;;8.10;99.90;;;;;;5044537;28;20040;-73
2022/11/12 10:30:04;;;;;;;85.53;30.90;;;8.20;99.90;;;;;;5045997;28;20322;-73
2022/11/12 10:32:30;;;;;;;74.20;31.13;;;8.30;99.90;;;;;;5055357;28;20050;-73
2022/11/12 10:34:55;;;;;;;66.37;30.93;;;8.30;99.90;;;;;;5050802;28;20291;-73
2022/11/12 10:37:24;;;;;;;60.80;29.67;;;8.40;99.90;;;;;;5013860;28;20048;-73
2022/11/12 10:39:50;;;;;;;71.55;30.65;;;8.40;99.90;;;;;;5045513;28;20070;-74
2022/11/12 10:42:18;;;;;;;76.20;31.30;;;8.50;99.90;;;;;;5024000;28;20040;-73
2022/11/12 10:44:44;;;;;;;74.90;31.60;;;8.50;99.90;;;;;;5041781;28;20102;-73
2022/11/12 10:47:22;;;;;;;79.87;31.20;;;8.50;99.90;;;;;;5042491;28;20846;-73
2022/11/12 10:50:07;;;;;;;74.85;31.65;;;8.50;99.90;;;;;;5058331;28;20367;-74
2022/11/12 10:52:33;;;;;;;80.70;33.67;;;8.60;99.90;;;;;;5056885;28;20036;-74
2022/11/12 10:55:27;;;;;;;70.27;30.90;;;8.60;99.90;;;;;;5040199;28;20618;-74
2022/11/12 10:58:15;;;;;;;70.35;31.25;;;8.70;99.90;;;;;;5032534;28;20291;-74
2022/11/12 11:00:58;;;;;;;70.22;31.85;;;8.70;99.90;;;;;;5042473;28;20049;-73
2022/11/12 11:03:31;;;;;;;74.20;34.10;;;8.80;99.90;;;;;;5054788;28;20396;-74
2022/11/12 11:06:06;;;;;;;64.63;29.63;;;8.80;99.90;;;;;;5076188;28;20727;-74
2022/11/12 11:08:38;;;;;;;;;;;8.90;99.90;;;;;;5060694;28;20307;-74
2022/11/12 11:11:16;;;;;;;72.53;34.37;;;8.90;99.90;;;;;;5040513;28;20565;-74
2022/11/12 11:13:43;;;;;;;60.80;31.83;;;8.90;99.90;;;;;;5058355;28;20362;-74
2022/11/12 11:16:26;;;;;;;68.40;32.20;;;9.00;99.90;;;;;;5019874;28;20279;-73
2022/11/12 11:18:56;;;;;;;65.67;34.00;;;9.00;99.90;;;;;;5040381;28;20287;-73
2022/11/12 11:21:48;;;;;;;70.37;33.17;;;9.00;99.90;;;;;;5053870;28;20290;-73
2022/11/12 11:24:24;;;;;;;71.63;33.70;;;9.10;99.90;;;;;;5053819;28;20294;-73
2022/11/12 11:26:55;;;;;;;62.73;32.83;;;9.10;99.90;;;;;;5038748;28;20275;-73
2022/11/12 11:29:49;;;;;;;63.30;32.17;;;9.20;99.90;;;;;;5054879;28;20357;-73
2022/11/12 11:32:42;;;;;;;65.80;32.00;;;9.20;99.90;;;;;;5037612;28;20783;-73
2022/11/12 11:35:23;;;;;;;64.43;33.60;;;9.20;99.90;;;;;;5057674;28;20369;-74
2022/11/12 11:38:15;;;;;;;64.50;32.23;;;9.10;99.90;;;;;;5053378;28;20281;-73
2022/11/12 11:41:08;;;;;;;60.83;32.33;;;9.10;99.90;;;;;;5057030;28;20294;-75
2022/11/12 11:44:12;;;;;;;62.90;32.40;;;9.20;99.90;;;;;;5059282;28;20284;-75
2022/11/12 11:47:17;;;;;;;60.13;31.67;;;9.20;99.90;;;;;;5031944;28;20275;-74
2022/11/12 11:49:43;;;;;;;70.73;34.83;;;9.20;99.90;;;;;;5026722;28;20394;-75
2022/11/12 11:52:42;;;;;;;74.10;35.90;;;9.30;99.90;;;;;;5060348;28;20354;-75
2022/11/12 11:55:29;;;;;;;65.70;34.40;;;9.30;99.90;;;;;;5043736;28;20575;-76
2022/11/12 11:57:58;;;;;;;63.63;35.33;;;9.20;99.90;;;;;;5057030;28;20277;-75
2022/11/12 12:00:28;;;;;;;68.60;37.30;;;9.30;99.90;;;;;;5055057;28;20288;-74
2022/11/12 12:03:30;;;;;;;64.47;34.50;;;9.30;99.90;;;;;;5059870;28;20285;-74
2022/11/12 12:06:08;;;;;;;63.73;34.53;;;9.40;99.90;;;;;;5053636;28;20306;-74
2022/11/12 12:08:52;;;;;;;65.77;36.27;;;9.40;99.90;;;;;;5062459;28;20303;-74
2022/11/12 12:12:00;;;;;;;70.53;36.43;;;9.50;99.90;;;;;;5061443;28;20315;-74
2022/11/12 12:14:37;;;;;;;68.23;36.03;;;9.50;99.90;;;;;;5033713;28;20283;-75
2022/11/12 12:17:33;;;;;;;72.83;36.57;;;9.60;99.90;;;;;;5059640;28;20344;-74
2022/11/12 12:20:15;;;;;;;64.03;34.93;;;9.60;99.90;;;;;;5061049;28;20336;-74
2022/11/12 12:22:51;;;;;;;65.93;37.30;;;9.60;99.90;;;;;;5055262;28;20667;-74
2022/11/12 12:25:26;;;;;;;65.80;35.83;;;9.60;99.90;;;;;;5035760;28;20320;-75
2022/11/12 12:28:09;;;;;;;60.30;33.65;;;9.70;99.90;;;;;;5036955;28;20329;-74
2022/11/12 12:30:40;;;;;;;60.67;34.97;;;9.80;99.90;;;;;;5051469;28;20032;-75
2022/11/12 12:33:19;;;;;;;59.13;34.13;;;9.80;99.90;;;;;;5052804;28;20279;-74
2022/11/12 12:36:10;;;;;;;57.70;33.37;;;9.80;99.90;;;;;;5053398;28;20299;-74
2022/11/12 12:39:15;;;;;;;63.83;34.67;;;9.80;99.90;;;;;;5060004;28;20340;-74
2022/11/12 12:41:59;;;;;;;61.90;33.30;;;9.80;99.90;;;;;;5042428;28;20682;-74
2022/11/12 12:44:58;;;;;;;55.70;32.72;;;9.80;99.90;;;;;;5054913;28;20279;-75
2022/11/12 12:47:19;;;;;;;53.57;31.70;;;9.80;99.90;;;;;;5061183;28;20048;-75
2022/11/12 12:49:47;;;;;;;54.73;32.43;;;9.90;99.90;;;;;;5040591;28;20843;-75
2022/11/12 12:52:14;;;;;;;54.20;32.23;;;10.00;99.90;;;;;;5057241;28;20341;-75
2022/11/12 12:54:39;;;;;;;53.37;31.40;;;10.00;99.90;;;;;;5024226;28;20290;-75
2022/11/12 12:57:31;;;;;;;53.13;32.30;;;10.00;99.90;;;;;;5059886;28;20340;-74
2022/11/12 13:00:39;;;;;;;53.53;32.50;;;10.00;99.90;;;;;;5051424;28;20093;-75
2022/11/12 13:03:05;;;;;;;51.37;30.60;;;10.00;99.90;;;;;;5007060;28;20871;-74
2022/11/12 13:05:35;;;;;;;48.27;31.10;;;10.00;99.90;;;;;;5041127;28;20294;-73
2022/11/12 13:08:12;;;;;;;54.37;32.17;;;10.00;99.90;;;;;;5038930;28;20709;-73
2022/11/12 13:10:40;;;;;;;48.97;30.53;;;10.10;99.90;;;;;;5044140;28;20678;-73
2022/11/12 13:13:18;;;;;;;52.23;30.93;;;10.10;99.90;;;;;;5041074;28;20393;-73